sensor_id;sensor_type;location;lat;lon;timestamp;P1;durP1;ratioP1;P2;durP2;ratioP2
27313;SDS011;14800;48.174;9.798;2022-09-13T00:00:36;2.38;;;1.10;;
27313;SDS011;14800;48.174;9.798;2022-09-13T00:03:03;1.80;;;1.45;;
27313;SDS011;14800;48.174;9.798;2022-09-13T00:05:29;3.42;;;1.40;;
27313;SDS011;14800;48.174;9.798;2022-09-13T00:07:55;2.17;;;1.50;;
27313;SDS011;14800;48.174;9.798;2022-09-13T00:10:21;3.53;;;1.25;;
27313;SDS011;14800;48.174;9.798;2022-09-13T00:12:47;1.20;;;1.10;;
27313;SDS011;14800;48.174;9.798;2022-09-13T00:15:13;2.03;;;1.50;;
27313;SDS011;14800;48.174;9.798;2022-09-13T00:17:39;2.58;;;1.58;;
27313;SDS011;14800;48.174;9.798;2022-09-13T00:20:05;2.25;;;1.40;;
27313;SDS011;14800;48.174;9.798;2022-09-13T00:22:32;1.77;;;1.50;;
27313;SDS011;14800;48.174;9.798;2022-09-13T00:24:58;1.90;;;1.42;;
27313;SDS011;14800;48.174;9.798;2022-09-13T00:27:26;5.10;;;1.20;;
27313;SDS011;14800;48.174;9.798;2022-09-13T00:29:53;2.55;;;1.48;;
27313;SDS011;14800;48.174;9.798;2022-09-13T00:32:18;1.33;;;1.23;;
27313;SDS011;14800;48.174;9.798;2022-09-13T00:34:44;1.58;;;1.40;;
27313;SDS011;14800;48.174;9.798;2022-09-13T00:37:10;1.25;;;1.15;;
27313;SDS011;14800;48.174;9.798;2022-09-13T00:39:35;1.40;;;1.30;;
27313;SDS011;14800;48.174;9.798;2022-09-13T00:42:01;1.30;;;1.13;;
27313;SDS011;14800;48.174;9.798;2022-09-13T00:47:11;1.40;;;1.30;;
27313;SDS011;14800;48.174;9.798;2022-09-13T00:49:39;1.25;;;1.15;;
27313;SDS011;14800;48.174;9.798;2022-09-13T00:52:09;1.30;;;1.20;;
27313;SDS011;14800;48.174;9.798;2022-09-13T00:54:45;1.92;;;1.40;;
27313;SDS011;14800;48.174;9.798;2022-09-13T00:57:15;2.22;;;1.40;;
27313;SDS011;14800;48.174;9.798;2022-09-13T00:59:44;1.20;;;1.10;;
27313;SDS011;14800;48.174;9.798;2022-09-13T01:02:24;1.98;;;1.30;;
27313;SDS011;14800;48.174;9.798;2022-09-13T01:04:52;2.55;;;1.33;;
27313;SDS011;14800;48.174;9.798;2022-09-13T01:07:18;2.92;;;1.55;;
27313;SDS011;14800;48.174;9.798;2022-09-13T01:09:44;1.52;;;1.42;;
27313;SDS011;14800;48.174;9.798;2022-09-13T01:12:14;1.38;;;1.20;;
27313;SDS011;14800;48.174;9.798;2022-09-13T01:14:56;1.40;;;1.30;;
27313;SDS011;14800;48.174;9.798;2022-09-13T01:17:24;4.28;;;1.40;;
27313;SDS011;14800;48.174;9.798;2022-09-13T01:19:52;1.55;;;1.45;;
27313;SDS011;14800;48.174;9.798;2022-09-13T01:31:15;1.60;;;1.50;;
27313;SDS011;14800;48.174;9.798;2022-09-13T01:47:56;1.38;;;1.27;;
27313;SDS011;14800;48.174;9.798;2022-09-13T01:50:39;1.40;;;1.30;;
27313;SDS011;14800;48.174;9.798;2022-09-13T02:01:03;1.35;;;1.25;;
27313;SDS011;14800;48.174;9.798;2022-09-13T02:04:25;1.92;;;1.40;;
27313;SDS011;14800;48.174;9.798;2022-09-13T02:06:46;1.67;;;1.30;;
27313;SDS011;14800;48.174;9.798;2022-09-13T02:09:20;1.77;;;1.25;;
27313;SDS011;14800;48.174;9.798;2022-09-13T02:11:49;1.52;;;1.42;;
27313;SDS011;14800;48.174;9.798;2022-09-13T02:14:25;2.03;;;1.30;;
27313;SDS011;14800;48.174;9.798;2022-09-13T02:17:14;1.63;;;1.40;;
27313;SDS011;14800;48.174;9.798;2022-09-13T02:19:51;2.08;;;1.38;;
27313;SDS011;14800;48.174;9.798;2022-09-13T02:22:22;1.55;;;1.20;;
27313;SDS011;14800;48.174;9.798;2022-09-13T02:24:54;4.78;;;1.30;;
27313;SDS011;14800;48.174;9.798;2022-09-13T02:27:24;1.45;;;1.20;;
27313;SDS011;14800;48.174;9.798;2022-09-13T02:29:54;1.92;;;1.20;;
27313;SDS011;14800;48.174;9.798;2022-09-13T02:32:27;1.35;;;1.25;;
27313;SDS011;14800;48.174;9.798;2022-09-13T02:35:00;2.10;;;1.25;;
27313;SDS011;14800;48.174;9.798;2022-09-13T02:37:52;2.97;;;1.17;;
27313;SDS011;14800;48.174;9.798;2022-09-13T02:40:25;1.58;;;1.48;;
27313;SDS011;14800;48.174;9.798;2022-09-13T02:43:40;1.55;;;1.20;;
27313;SDS011;14800;48.174;9.798;2022-09-13T02:46:07;1.20;;;1.10;;
27313;SDS011;14800;48.174;9.798;2022-09-13T02:48:47;1.60;;;1.50;;
27313;SDS011;14800;48.174;9.798;2022-09-13T02:52:17;1.75;;;1.50;;
27313;SDS011;14800;48.174;9.798;2022-09-13T02:54:37;2.38;;;1.20;;
27313;SDS011;14800;48.174;9.798;2022-09-13T02:57:14;2.10;;;1.20;;
27313;SDS011;14800;48.174;9.798;2022-09-13T02:59:50;1.88;;;1.30;;
27313;SDS011;14800;48.174;9.798;2022-09-13T03:02:17;2.25;;;1.40;;
27313;SDS011;14800;48.174;9.798;2022-09-13T03:04:45;2.97;;;1.25;;
27313;SDS011;14800;48.174;9.798;2022-09-13T03:07:11;3.30;;;1.17;;
27313;SDS011;14800;48.174;9.798;2022-09-13T03:09:40;1.30;;;1.20;;
27313;SDS011;14800;48.174;9.798;2022-09-13T03:24:01;1.23;;;1.13;;
27313;SDS011;14800;48.174;9.798;2022-09-13T03:32:06;1.40;;;1.30;;
27313;SDS011;14800;48.174;9.798;2022-09-13T03:37:31;1.95;;;1.10;;
27313;SDS011;14800;48.174;9.798;2022-09-13T03:45:47;1.48;;;1.38;;
27313;SDS011;14800;48.174;9.798;2022-09-13T03:48:15;2.20;;;1.38;;
27313;SDS011;14800;48.174;9.798;2022-09-13T03:50:42;3.40;;;1.23;;
27313;SDS011;14800;48.174;9.798;2022-09-13T03:53:11;1.65;;;1.13;;
27313;SDS011;14800;48.174;9.798;2022-09-13T03:55:40;3.75;;;1.33;;
27313;SDS011;14800;48.174;9.798;2022-09-13T03:58:10;3.15;;;1.45;;
27313;SDS011;14800;48.174;9.798;2022-09-13T04:00:37;1.60;;;1.50;;
27313;SDS011;14800;48.174;9.798;2022-09-13T04:03:04;3.35;;;1.40;;
27313;SDS011;14800;48.174;9.798;2022-09-13T04:05:30;2.80;;;1.40;;
27313;SDS011;14800;48.174;9.798;2022-09-13T04:07:57;1.50;;;1.40;;
27313;SDS011;14800;48.174;9.798;2022-09-13T04:10:23;2.03;;;1.30;;
27313;SDS011;14800;48.174;9.798;2022-09-13T04:12:48;1.70;;;1.40;;
27313;SDS011;14800;48.174;9.798;2022-09-13T04:15:14;1.63;;;1.40;;
27313;SDS011;14800;48.174;9.798;2022-09-13T04:17:40;1.40;;;1.30;;
27313;SDS011;14800;48.174;9.798;2022-09-13T04:20:06;1.60;;;1.30;;
27313;SDS011;14800;48.174;9.798;2022-09-13T04:22:32;2.10;;;1.38;;
27313;SDS011;14800;48.174;9.798;2022-09-13T04:24:57;1.48;;;1.38;;
27313;SDS011;14800;48.174;9.798;2022-09-13T04:27:24;5.38;;;3.30;;
27313;SDS011;14800;48.174;9.798;2022-09-13T04:29:49;9.10;;;5.05;;
27313;SDS011;14800;48.174;9.798;2022-09-13T04:32:15;15.35;;;7.97;;
27313;SDS011;14800;48.174;9.798;2022-09-13T04:34:43;16.42;;;8.30;;
27313;SDS011;14800;48.174;9.798;2022-09-13T04:37:09;16.45;;;7.43;;
27313;SDS011;14800;48.174;9.798;2022-09-13T04:39:35;13.65;;;6.72;;
27313;SDS011;14800;48.174;9.798;2022-09-13T04:42:01;13.93;;;7.00;;
27313;SDS011;14800;48.174;9.798;2022-09-13T04:44:26;13.38;;;6.38;;
27313;SDS011;14800;48.174;9.798;2022-09-13T04:46:56;9.82;;;5.70;;
27313;SDS011;14800;48.174;9.798;2022-09-13T04:49:22;8.73;;;5.35;;
27313;SDS011;14800;48.174;9.798;2022-09-13T04:51:47;9.45;;;4.90;;
27313;SDS011;14800;48.174;9.798;2022-09-13T04:54:13;8.30;;;4.78;;
27313;SDS011;14800;48.174;9.798;2022-09-13T04:56:39;8.50;;;4.68;;
27313;SDS011;14800;48.174;9.798;2022-09-13T04:59:05;6.50;;;4.18;;
27313;SDS011;14800;48.174;9.798;2022-09-13T05:01:31;7.18;;;4.03;;
27313;SDS011;14800;48.174;9.798;2022-09-13T05:03:56;7.47;;;3.88;;
27313;SDS011;14800;48.174;9.798;2022-09-13T05:06:22;4.70;;;3.38;;
27313;SDS011;14800;48.174;9.798;2022-09-13T05:08:49;4.80;;;3.13;;
27313;SDS011;14800;48.174;9.798;2022-09-13T05:11:19;5.72;;;3.53;;
27313;SDS011;14800;48.174;9.798;2022-09-13T05:13:50;6.63;;;3.72;;
27313;SDS011;14800;48.174;9.798;2022-09-13T05:16:20;4.43;;;3.40;;
27313;SDS011;14800;48.174;9.798;2022-09-13T05:18:46;5.45;;;3.33;;
27313;SDS011;14800;48.174;9.798;2022-09-13T05:21:13;4.47;;;3.00;;
27313;SDS011;14800;48.174;9.798;2022-09-13T05:23:39;5.93;;;2.83;;
27313;SDS011;14800;48.174;9.798;2022-09-13T05:26:04;4.40;;;2.78;;
27313;SDS011;14800;48.174;9.798;2022-09-13T05:28:31;4.38;;;2.90;;
27313;SDS011;14800;48.174;9.798;2022-09-13T05:31:02;4.22;;;2.70;;
27313;SDS011;14800;48.174;9.798;2022-09-13T05:33:31;3.22;;;2.17;;
27313;SDS011;14800;48.174;9.798;2022-09-13T05:36:01;5.30;;;2.15;;
27313;SDS011;14800;48.174;9.798;2022-09-13T05:38:28;4.65;;;2.08;;
27313;SDS011;14800;48.174;9.798;2022-09-13T05:40:54;3.70;;;2.17;;
27313;SDS011;14800;48.174;9.798;2022-09-13T05:43:25;2.25;;;2.00;;
27313;SDS011;14800;48.174;9.798;2022-09-13T05:45:59;3.83;;;2.30;;
27313;SDS011;14800;48.174;9.798;2022-09-13T05:48:45;5.22;;;2.10;;
27313;SDS011;14800;48.174;9.798;2022-09-13T05:51:13;10.38;;;2.60;;
27313;SDS011;14800;48.174;9.798;2022-09-13T05:53:48;9.57;;;2.72;;
27313;SDS011;14800;48.174;9.798;2022-09-13T05:56:16;14.07;;;3.08;;
27313;SDS011;14800;48.174;9.798;2022-09-13T05:58:43;4.07;;;2.55;;
27313;SDS011;14800;48.174;9.798;2022-09-13T06:01:10;5.20;;;2.70;;
27313;SDS011;14800;48.174;9.798;2022-09-13T06:03:36;8.88;;;2.70;;
27313;SDS011;14800;48.174;9.798;2022-09-13T06:06:03;4.43;;;2.22;;
27313;SDS011;14800;48.174;9.798;2022-09-13T06:08:29;3.65;;;2.20;;
27313;SDS011;14800;48.174;9.798;2022-09-13T06:10:57;3.58;;;2.25;;
27313;SDS011;14800;48.174;9.798;2022-09-13T06:13:23;4.20;;;2.47;;
27313;SDS011;14800;48.174;9.798;2022-09-13T06:15:50;3.45;;;2.25;;
27313;SDS011;14800;48.174;9.798;2022-09-13T06:18:16;4.78;;;2.35;;
27313;SDS011;14800;48.174;9.798;2022-09-13T06:20:42;6.88;;;2.33;;
27313;SDS011;14800;48.174;9.798;2022-09-13T06:23:07;3.20;;;2.20;;
27313;SDS011;14800;48.174;9.798;2022-09-13T06:25:33;4.18;;;2.13;;
27313;SDS011;14800;48.174;9.798;2022-09-13T06:27:59;4.07;;;2.10;;
27313;SDS011;14800;48.174;9.798;2022-09-13T06:30:24;5.25;;;2.00;;
27313;SDS011;14800;48.174;9.798;2022-09-13T06:32:50;3.15;;;2.05;;
27313;SDS011;14800;48.174;9.798;2022-09-13T06:35:15;3.35;;;2.05;;
27313;SDS011;14800;48.174;9.798;2022-09-13T06:37:44;4.15;;;1.83;;
27313;SDS011;14800;48.174;9.798;2022-09-13T06:40:10;6.80;;;2.58;;
27313;SDS011;14800;48.174;9.798;2022-09-13T06:42:37;9.07;;;2.85;;
27313;SDS011;14800;48.174;9.798;2022-09-13T06:45:03;6.28;;;2.70;;
27313;SDS011;14800;48.174;9.798;2022-09-13T06:47:30;6.22;;;2.60;;
27313;SDS011;14800;48.174;9.798;2022-09-13T06:49:56;9.18;;;3.13;;
27313;SDS011;14800;48.174;9.798;2022-09-13T06:52:22;8.48;;;3.08;;
27313;SDS011;14800;48.174;9.798;2022-09-13T06:54:48;4.40;;;2.63;;
27313;SDS011;14800;48.174;9.798;2022-09-13T06:57:14;3.20;;;2.33;;
27313;SDS011;14800;48.174;9.798;2022-09-13T06:59:39;6.40;;;2.67;;
27313;SDS011;14800;48.174;9.798;2022-09-13T07:02:05;2.50;;;2.30;;
27313;SDS011;14800;48.174;9.798;2022-09-13T07:04:30;2.42;;;2.10;;
27313;SDS011;14800;48.174;9.798;2022-09-13T07:06:56;4.43;;;2.30;;
27313;SDS011;14800;48.174;9.798;2022-09-13T07:09:23;4.32;;;2.15;;
27313;SDS011;14800;48.174;9.798;2022-09-13T07:11:50;5.75;;;2.45;;
27313;SDS011;14800;48.174;9.798;2022-09-13T07:14:18;5.30;;;2.40;;
27313;SDS011;14800;48.174;9.798;2022-09-13T07:16:46;2.45;;;1.95;;
27313;SDS011;14800;48.174;9.798;2022-09-13T07:19:13;3.63;;;2.45;;
27313;SDS011;14800;48.174;9.798;2022-09-13T07:21:44;2.40;;;2.10;;
27313;SDS011;14800;48.174;9.798;2022-09-13T07:24:10;2.28;;;2.15;;
27313;SDS011;14800;48.174;9.798;2022-09-13T07:26:36;3.58;;;2.15;;
27313;SDS011;14800;48.174;9.798;2022-09-13T07:29:03;2.67;;;2.03;;
27313;SDS011;14800;48.174;9.798;2022-09-13T07:31:32;2.92;;;1.98;;
27313;SDS011;14800;48.174;9.798;2022-09-13T07:34:00;2.20;;;2.10;;
27313;SDS011;14800;48.174;9.798;2022-09-13T07:36:28;2.20;;;2.10;;
27313;SDS011;14800;48.174;9.798;2022-09-13T07:38:55;4.03;;;2.45;;
27313;SDS011;14800;48.174;9.798;2022-09-13T07:41:22;3.10;;;2.10;;
27313;SDS011;14800;48.174;9.798;2022-09-13T07:43:50;2.03;;;1.83;;
27313;SDS011;14800;48.174;9.798;2022-09-13T07:46:20;2.20;;;2.00;;
27313;SDS011;14800;48.174;9.798;2022-09-13T07:48:47;4.15;;;2.20;;
27313;SDS011;14800;48.174;9.798;2022-09-13T07:51:15;3.83;;;2.10;;
27313;SDS011;14800;48.174;9.798;2022-09-13T07:53:45;3.40;;;2.33;;
27313;SDS011;14800;48.174;9.798;2022-09-13T07:58:42;3.15;;;2.30;;
27313;SDS011;14800;48.174;9.798;2022-09-13T08:03:43;3.38;;;2.25;;
27313;SDS011;14800;48.174;9.798;2022-09-13T08:06:14;3.13;;;2.40;;
27313;SDS011;14800;48.174;9.798;2022-09-13T08:08:39;2.20;;;2.00;;
27313;SDS011;14800;48.174;9.798;2022-09-13T08:11:05;2.30;;;2.10;;
27313;SDS011;14800;48.174;9.798;2022-09-13T08:13:31;4.68;;;1.90;;
27313;SDS011;14800;48.174;9.798;2022-09-13T08:16:02;3.60;;;1.77;;
27313;SDS011;14800;48.174;9.798;2022-09-13T08:18:29;1.52;;;1.42;;
27313;SDS011;14800;48.174;9.798;2022-09-13T08:20:55;1.30;;;1.20;;
27313;SDS011;14800;48.174;9.798;2022-09-13T08:23:25;3.67;;;1.70;;
27313;SDS011;14800;48.174;9.798;2022-09-13T08:25:51;1.65;;;1.55;;
27313;SDS011;14800;48.174;9.798;2022-09-13T08:28:18;2.45;;;1.75;;
27313;SDS011;14800;48.174;9.798;2022-09-13T08:30:45;1.50;;;1.40;;
27313;SDS011;14800;48.174;9.798;2022-09-13T08:33:12;3.67;;;1.40;;
27313;SDS011;14800;48.174;9.798;2022-09-13T08:35:38;1.70;;;1.45;;
27313;SDS011;14800;48.174;9.798;2022-09-13T08:38:11;3.53;;;1.30;;
27313;SDS011;14800;48.174;9.798;2022-09-13T08:40:40;1.45;;;1.20;;
27313;SDS011;14800;48.174;9.798;2022-09-13T08:45:49;1.45;;;1.13;;
27313;SDS011;14800;48.174;9.798;2022-09-13T08:48:25;1.92;;;1.42;;
27313;SDS011;14800;48.174;9.798;2022-09-13T08:51:00;1.38;;;1.20;;
27313;SDS011;14800;48.174;9.798;2022-09-13T08:53:29;1.48;;;1.10;;
27313;SDS011;14800;48.174;9.798;2022-09-13T08:56:03;1.38;;;1.20;;
27313;SDS011;14800;48.174;9.798;2022-09-13T09:01:15;3.00;;;1.05;;
27313;SDS011;14800;48.174;9.798;2022-09-13T09:06:44;2.65;;;0.90;;
27313;SDS011;14800;48.174;9.798;2022-09-13T09:09:15;4.40;;;1.20;;
27313;SDS011;14800;48.174;9.798;2022-09-13T09:11:58;2.13;;;1.10;;
27313;SDS011;14800;48.174;9.798;2022-09-13T09:14:55;1.88;;;1.10;;
27313;SDS011;14800;48.174;9.798;2022-09-13T09:17:29;0.93;;;0.93;;
27313;SDS011;14800;48.174;9.798;2022-09-13T09:20:23;1.75;;;1.00;;
27313;SDS011;14800;48.174;9.798;2022-09-13T09:23:07;1.70;;;1.00;;
27313;SDS011;14800;48.174;9.798;2022-09-13T09:25:39;1.25;;;1.08;;
27313;SDS011;14800;48.174;9.798;2022-09-13T09:28:15;1.70;;;1.25;;
27313;SDS011;14800;48.174;9.798;2022-09-13T09:30:53;3.22;;;0.93;;
27313;SDS011;14800;48.174;9.798;2022-09-13T09:33:41;4.47;;;1.00;;
27313;SDS011;14800;48.174;9.798;2022-09-13T09:36:17;0.88;;;0.80;;
27313;SDS011;14800;48.174;9.798;2022-09-13T09:38:49;0.68;;;0.68;;
27313;SDS011;14800;48.174;9.798;2022-09-13T09:41:22;1.60;;;0.68;;
27313;SDS011;14800;48.174;9.798;2022-09-13T09:46:43;1.00;;;1.00;;
27313;SDS011;14800;48.174;9.798;2022-09-13T09:49:25;2.30;;;0.82;;
27313;SDS011;14800;48.174;9.798;2022-09-13T09:52:22;0.70;;;0.70;;
27313;SDS011;14800;48.174;9.798;2022-09-13T09:54:57;0.70;;;0.70;;
27313;SDS011;14800;48.174;9.798;2022-09-13T09:57:50;0.80;;;0.70;;
27313;SDS011;14800;48.174;9.798;2022-09-13T10:00:27;1.45;;;0.70;;
27313;SDS011;14800;48.174;9.798;2022-09-13T10:02:58;0.90;;;0.90;;
27313;SDS011;14800;48.174;9.798;2022-09-13T10:05:27;0.95;;;0.70;;
27313;SDS011;14800;48.174;9.798;2022-09-13T10:08:00;5.85;;;0.80;;
27313;SDS011;14800;48.174;9.798;2022-09-13T10:13:14;0.70;;;0.60;;
27313;SDS011;14800;48.174;9.798;2022-09-13T10:15:54;0.70;;;0.50;;
27313;SDS011;14800;48.174;9.798;2022-09-13T10:18:34;2.03;;;0.68;;
27313;SDS011;14800;48.174;9.798;2022-09-13T10:21:04;1.17;;;0.70;;
27313;SDS011;14800;48.174;9.798;2022-09-13T10:23:43;0.65;;;0.50;;
27313;SDS011;14800;48.174;9.798;2022-09-13T10:26:11;1.08;;;0.70;;
27313;SDS011;14800;48.174;9.798;2022-09-13T10:28:43;1.55;;;0.63;;
27313;SDS011;14800;48.174;9.798;2022-09-13T10:31:16;2.97;;;0.98;;
27313;SDS011;14800;48.174;9.798;2022-09-13T10:36:23;0.85;;;0.60;;
27313;SDS011;14800;48.174;9.798;2022-09-13T10:39:13;2.60;;;0.70;;
27313;SDS011;14800;48.174;9.798;2022-09-13T10:41:42;1.92;;;0.70;;
27313;SDS011;14800;48.174;9.798;2022-09-13T10:46:55;1.92;;;0.65;;
27313;SDS011;14800;48.174;9.798;2022-09-13T10:54:59;1.10;;;0.40;;
27313;SDS011;14800;48.174;9.798;2022-09-13T11:00:17;2.90;;;0.68;;
27313;SDS011;14800;48.174;9.798;2022-09-13T11:14:04;2.05;;;0.60;;
27313;SDS011;14800;48.174;9.798;2022-09-13T11:16:48;0.93;;;0.65;;
27313;SDS011;14800;48.174;9.798;2022-09-13T11:22:37;0.70;;;0.50;;
27313;SDS011;14800;48.174;9.798;2022-09-13T11:30:57;0.90;;;0.52;;
27313;SDS011;14800;48.174;9.798;2022-09-13T11:36:24;0.45;;;0.45;;
27313;SDS011;14800;48.174;9.798;2022-09-13T11:39:22;0.50;;;0.50;;
27313;SDS011;14800;48.174;9.798;2022-09-13T11:52:23;1.30;;;0.60;;
27313;SDS011;14800;48.174;9.798;2022-09-13T11:55:17;2.70;;;0.70;;
27313;SDS011;14800;48.174;9.798;2022-09-13T11:57:51;1.15;;;0.50;;
27313;SDS011;14800;48.174;9.798;2022-09-13T12:00:21;2.22;;;0.50;;
27313;SDS011;14800;48.174;9.798;2022-09-13T12:05:42;1.25;;;0.60;;
27313;SDS011;14800;48.174;9.798;2022-09-13T12:10:54;0.93;;;0.50;;
27313;SDS011;14800;48.174;9.798;2022-09-13T12:13:30;2.72;;;0.68;;
27313;SDS011;14800;48.174;9.798;2022-09-13T12:16:04;0.88;;;0.45;;
27313;SDS011;14800;48.174;9.798;2022-09-13T12:18:46;1.80;;;0.57;;
27313;SDS011;14800;48.174;9.798;2022-09-13T12:21:15;1.10;;;0.50;;
27313;SDS011;14800;48.174;9.798;2022-09-13T12:26:29;1.73;;;0.50;;
27313;SDS011;14800;48.174;9.798;2022-09-13T12:28:56;0.90;;;0.43;;
27313;SDS011;14800;48.174;9.798;2022-09-13T12:31:26;2.78;;;0.57;;
27313;SDS011;14800;48.174;9.798;2022-09-13T12:33:55;0.60;;;0.60;;
27313;SDS011;14800;48.174;9.798;2022-09-13T12:39:16;1.52;;;0.50;;
27313;SDS011;14800;48.174;9.798;2022-09-13T13:01:48;0.77;;;0.50;;
27313;SDS011;14800;48.174;9.798;2022-09-13T13:04:37;0.80;;;0.40;;
27313;SDS011;14800;48.174;9.798;2022-09-13T13:07:02;0.65;;;0.50;;
27313;SDS011;14800;48.174;9.798;2022-09-13T13:12:30;0.88;;;0.60;;
27313;SDS011;14800;48.174;9.798;2022-09-13T13:17:46;0.75;;;0.32;;
27313;SDS011;14800;48.174;9.798;2022-09-13T13:23:03;2.78;;;0.40;;
27313;SDS011;14800;48.174;9.798;2022-09-13T13:25:52;0.50;;;0.50;;
27313;SDS011;14800;48.174;9.798;2022-09-13T13:31:09;1.02;;;0.50;;
27313;SDS011;14800;48.174;9.798;2022-09-13T13:34:25;0.93;;;0.40;;
27313;SDS011;14800;48.174;9.798;2022-09-13T13:36:49;2.70;;;0.50;;
27313;SDS011;14800;48.174;9.798;2022-09-13T13:49:53;2.20;;;0.80;;
27313;SDS011;14800;48.174;9.798;2022-09-13T13:52:40;0.85;;;0.50;;
27313;SDS011;14800;48.174;9.798;2022-09-13T13:55:30;0.90;;;0.65;;
27313;SDS011;14800;48.174;9.798;2022-09-13T14:00:51;0.38;;;0.38;;
27313;SDS011;14800;48.174;9.798;2022-09-13T14:19:44;1.25;;;0.80;;
27313;SDS011;14800;48.174;9.798;2022-09-13T14:22:20;1.08;;;0.55;;
27313;SDS011;14800;48.174;9.798;2022-09-13T14:29:56;2.35;;;0.50;;
27313;SDS011;14800;48.174;9.798;2022-09-13T14:32:28;0.50;;;0.43;;
27313;SDS011;14800;48.174;9.798;2022-09-13T14:35:00;1.10;;;0.63;;
27313;SDS011;14800;48.174;9.798;2022-09-13T14:37:35;1.98;;;0.60;;
27313;SDS011;14800;48.174;9.798;2022-09-13T14:42:40;1.27;;;0.55;;
27313;SDS011;14800;48.174;9.798;2022-09-13T14:45:40;1.42;;;0.50;;
27313;SDS011;14800;48.174;9.798;2022-09-13T14:48:08;1.88;;;0.50;;
27313;SDS011;14800;48.174;9.798;2022-09-13T14:50:53;2.20;;;0.77;;
27313;SDS011;14800;48.174;9.798;2022-09-13T14:53:23;0.65;;;0.40;;
27313;SDS011;14800;48.174;9.798;2022-09-13T14:55:52;1.27;;;0.55;;
27313;SDS011;14800;48.174;9.798;2022-09-13T14:59:10;0.80;;;0.60;;
27313;SDS011;14800;48.174;9.798;2022-09-13T15:01:07;1.48;;;0.70;;
27313;SDS011;14800;48.174;9.798;2022-09-13T15:03:35;4.05;;;0.70;;
27313;SDS011;14800;48.174;9.798;2022-09-13T15:06:04;1.15;;;0.55;;
27313;SDS011;14800;48.174;9.798;2022-09-13T15:10:59;7.95;;;0.70;;
27313;SDS011;14800;48.174;9.798;2022-09-13T15:13:26;3.22;;;0.57;;
27313;SDS011;14800;48.174;9.798;2022-09-13T15:15:53;2.67;;;0.70;;
27313;SDS011;14800;48.174;9.798;2022-09-13T15:25:53;0.85;;;0.70;;
27313;SDS011;14800;48.174;9.798;2022-09-13T15:28:27;0.75;;;0.50;;
27313;SDS011;14800;48.174;9.798;2022-09-13T15:30:56;2.50;;;0.57;;
27313;SDS011;14800;48.174;9.798;2022-09-13T15:33:30;1.50;;;0.70;;
27313;SDS011;14800;48.174;9.798;2022-09-13T15:41:32;0.82;;;0.60;;
27313;SDS011;14800;48.174;9.798;2022-09-13T15:44:02;0.55;;;0.55;;
27313;SDS011;14800;48.174;9.798;2022-09-13T15:46:29;2.25;;;0.60;;
27313;SDS011;14800;48.174;9.798;2022-09-13T15:48:56;0.52;;;0.50;;
27313;SDS011;14800;48.174;9.798;2022-09-13T15:51:24;1.50;;;0.55;;
27313;SDS011;14800;48.174;9.798;2022-09-13T15:53:50;0.60;;;0.60;;
27313;SDS011;14800;48.174;9.798;2022-09-13T15:56:20;2.25;;;0.70;;
27313;SDS011;14800;48.174;9.798;2022-09-13T15:58:48;0.93;;;0.50;;
27313;SDS011;14800;48.174;9.798;2022-09-13T16:01:14;1.75;;;0.50;;
27313;SDS011;14800;48.174;9.798;2022-09-13T16:03:40;1.05;;;0.60;;
27313;SDS011;14800;48.174;9.798;2022-09-13T16:06:06;0.98;;;0.50;;
27313;SDS011;14800;48.174;9.798;2022-09-13T16:08:33;1.10;;;0.60;;
27313;SDS011;14800;48.174;9.798;2022-09-13T16:11:00;2.63;;;0.60;;
27313;SDS011;14800;48.174;9.798;2022-09-13T16:13:26;1.63;;;0.68;;
27313;SDS011;14800;48.174;9.798;2022-09-13T16:15:51;1.50;;;0.63;;
27313;SDS011;14800;48.174;9.798;2022-09-13T16:18:17;1.27;;;0.52;;
27313;SDS011;14800;48.174;9.798;2022-09-13T16:20:43;1.58;;;0.55;;
27313;SDS011;14800;48.174;9.798;2022-09-13T16:23:09;5.32;;;0.63;;
27313;SDS011;14800;48.174;9.798;2022-09-13T16:25:35;0.80;;;0.75;;
27313;SDS011;14800;48.174;9.798;2022-09-13T16:28:03;0.95;;;0.95;;
27313;SDS011;14800;48.174;9.798;2022-09-13T16:30:29;1.40;;;1.20;;
27313;SDS011;14800;48.174;9.798;2022-09-13T16:32:56;1.63;;;1.30;;
27313;SDS011;14800;48.174;9.798;2022-09-13T16:35:23;1.30;;;1.00;;
27313;SDS011;14800;48.174;9.798;2022-09-13T16:37:52;1.10;;;1.00;;
27313;SDS011;14800;48.174;9.798;2022-09-13T16:40:18;0.93;;;0.80;;
27313;SDS011;14800;48.174;9.798;2022-09-13T16:42:44;1.98;;;0.60;;
27313;SDS011;14800;48.174;9.798;2022-09-13T16:45:10;0.95;;;0.70;;
27313;SDS011;14800;48.174;9.798;2022-09-13T16:47:36;1.75;;;0.85;;
27313;SDS011;14800;48.174;9.798;2022-09-13T16:50:03;1.00;;;0.88;;
27313;SDS011;14800;48.174;9.798;2022-09-13T16:52:30;0.65;;;0.60;;
27313;SDS011;14800;48.174;9.798;2022-09-13T16:54:56;1.88;;;0.68;;
27313;SDS011;14800;48.174;9.798;2022-09-13T16:57:23;1.52;;;0.70;;
27313;SDS011;14800;48.174;9.798;2022-09-13T16:59:49;3.40;;;0.80;;
27313;SDS011;14800;48.174;9.798;2022-09-13T17:02:17;5.97;;;4.57;;
27313;SDS011;14800;48.174;9.798;2022-09-13T17:04:44;1.98;;;1.88;;
27313;SDS011;14800;48.174;9.798;2022-09-13T17:07:10;2.53;;;1.40;;
27313;SDS011;14800;48.174;9.798;2022-09-13T17:09:36;3.17;;;1.00;;
27313;SDS011;14800;48.174;9.798;2022-09-13T17:12:04;2.70;;;0.85;;
27313;SDS011;14800;48.174;9.798;2022-09-13T17:14:34;3.45;;;1.00;;
27313;SDS011;14800;48.174;9.798;2022-09-13T17:17:00;1.00;;;0.70;;
27313;SDS011;14800;48.174;9.798;2022-09-13T17:19:30;4.00;;;1.10;;
27313;SDS011;14800;48.174;9.798;2022-09-13T17:22:01;2.58;;;0.88;;
27313;SDS011;14800;48.174;9.798;2022-09-13T17:24:27;2.55;;;1.10;;
27313;SDS011;14800;48.174;9.798;2022-09-13T17:26:55;2.28;;;1.02;;
27313;SDS011;14800;48.174;9.798;2022-09-13T17:29:21;1.50;;;1.40;;
27313;SDS011;14800;48.174;9.798;2022-09-13T17:31:49;1.98;;;1.20;;
27313;SDS011;14800;48.174;9.798;2022-09-13T17:34:15;2.55;;;1.17;;
27313;SDS011;14800;48.174;9.798;2022-09-13T17:36:41;1.30;;;1.20;;
27313;SDS011;14800;48.174;9.798;2022-09-13T17:39:07;1.20;;;1.10;;
27313;SDS011;14800;48.174;9.798;2022-09-13T17:41:33;4.07;;;1.10;;
27313;SDS011;14800;48.174;9.798;2022-09-13T17:43:59;1.63;;;0.98;;
27313;SDS011;14800;48.174;9.798;2022-09-13T17:46:25;3.10;;;0.95;;
27313;SDS011;14800;48.174;9.798;2022-09-13T17:48:53;1.10;;;0.90;;
27313;SDS011;14800;48.174;9.798;2022-09-13T17:51:21;2.00;;;0.98;;
27313;SDS011;14800;48.174;9.798;2022-09-13T17:53:51;1.17;;;1.00;;
27313;SDS011;14800;48.174;9.798;2022-09-13T17:58:45;2.08;;;0.95;;
27313;SDS011;14800;48.174;9.798;2022-09-13T18:01:11;2.80;;;1.13;;
27313;SDS011;14800;48.174;9.798;2022-09-13T18:03:40;1.20;;;0.90;;
27313;SDS011;14800;48.174;9.798;2022-09-13T18:06:07;2.97;;;1.02;;
27313;SDS011;14800;48.174;9.798;2022-09-13T18:08:34;1.85;;;1.20;;
27313;SDS011;14800;48.174;9.798;2022-09-13T18:11:02;1.75;;;0.90;;
27313;SDS011;14800;48.174;9.798;2022-09-13T18:13:29;1.77;;;0.82;;
27313;SDS011;14800;48.174;9.798;2022-09-13T18:16:28;3.08;;;1.25;;
27313;SDS011;14800;48.174;9.798;2022-09-13T18:18:49;4.03;;;1.33;;
27313;SDS011;14800;48.174;9.798;2022-09-13T18:21:16;4.68;;;1.10;;
27313;SDS011;14800;48.174;9.798;2022-09-13T18:23:45;2.05;;;1.10;;
27313;SDS011;14800;48.174;9.798;2022-09-13T18:26:12;1.77;;;1.15;;
27313;SDS011;14800;48.174;9.798;2022-09-13T18:28:40;2.63;;;0.93;;
27313;SDS011;14800;48.174;9.798;2022-09-13T18:31:13;2.63;;;0.90;;
27313;SDS011;14800;48.174;9.798;2022-09-13T18:33:40;2.08;;;1.17;;
27313;SDS011;14800;48.174;9.798;2022-09-13T18:36:08;4.45;;;1.10;;
27313;SDS011;14800;48.174;9.798;2022-09-13T18:38:41;1.30;;;0.93;;
27313;SDS011;14800;48.174;9.798;2022-09-13T18:41:12;1.27;;;0.95;;
27313;SDS011;14800;48.174;9.798;2022-09-13T18:43:40;3.83;;;1.20;;
27313;SDS011;14800;48.174;9.798;2022-09-13T18:46:09;3.17;;;1.15;;
27313;SDS011;14800;48.174;9.798;2022-09-13T18:48:39;2.00;;;1.00;;
27313;SDS011;14800;48.174;9.798;2022-09-13T18:51:10;3.00;;;1.10;;